sensor_id;sensor_type;location;lat;lon;timestamp;P1;durP1;ratioP1;P2;durP2;ratioP2
72132;SDS011;60008;50.826;6.896;2024-01-30T00:00:21;16.35;;;7.70;;
72132;SDS011;60008;50.826;6.896;2024-01-30T00:03:07;14.90;;;7.70;;
72132;SDS011;60008;50.826;6.896;2024-01-30T00:05:52;15.88;;;7.53;;
72132;SDS011;60008;50.826;6.896;2024-01-30T00:08:40;16.17;;;8.00;;
72132;SDS011;60008;50.826;6.896;2024-01-30T00:11:25;15.80;;;7.57;;
72132;SDS011;60008;50.826;6.896;2024-01-30T00:14:12;16.50;;;7.40;;
72132;SDS011;60008;50.826;6.896;2024-01-30T00:16:58;17.67;;;8.10;;
72132;SDS011;60008;50.826;6.896;2024-01-30T00:19:44;19.52;;;8.02;;
72132;SDS011;60008;50.826;6.896;2024-01-30T00:22:29;14.55;;;7.75;;
72132;SDS011;60008;50.826;6.896;2024-01-30T00:25:15;17.88;;;8.18;;
72132;SDS011;60008;50.826;6.896;2024-01-30T00:28:00;16.75;;;7.70;;
72132;SDS011;60008;50.826;6.896;2024-01-30T00:30:45;17.57;;;8.23;;
72132;SDS011;60008;50.826;6.896;2024-01-30T00:33:31;21.95;;;9.75;;
72132;SDS011;60008;50.826;6.896;2024-01-30T00:36:16;22.92;;;10.05;;
72132;SDS011;60008;50.826;6.896;2024-01-30T00:39:01;21.33;;;9.68;;
72132;SDS011;60008;50.826;6.896;2024-01-30T00:41:51;21.55;;;8.77;;
72132;SDS011;60008;50.826;6.896;2024-01-30T00:44:36;20.80;;;8.77;;
72132;SDS011;60008;50.826;6.896;2024-01-30T00:47:24;19.55;;;8.20;;
72132;SDS011;60008;50.826;6.896;2024-01-30T00:50:10;17.27;;;8.27;;
72132;SDS011;60008;50.826;6.896;2024-01-30T00:52:56;14.48;;;7.75;;
72132;SDS011;60008;50.826;6.896;2024-01-30T00:55:41;17.50;;;7.75;;
72132;SDS011;60008;50.826;6.896;2024-01-30T00:58:26;14.53;;;7.80;;
72132;SDS011;60008;50.826;6.896;2024-01-30T01:01:11;12.70;;;6.85;;
72132;SDS011;60008;50.826;6.896;2024-01-30T01:03:57;15.70;;;8.02;;
72132;SDS011;60008;50.826;6.896;2024-01-30T01:06:43;14.90;;;7.95;;
72132;SDS011;60008;50.826;6.896;2024-01-30T01:09:28;15.15;;;8.13;;
72132;SDS011;60008;50.826;6.896;2024-01-30T01:12:13;15.13;;;7.93;;
72132;SDS011;60008;50.826;6.896;2024-01-30T01:14:58;17.35;;;8.20;;
72132;SDS011;60008;50.826;6.896;2024-01-30T01:17:44;16.70;;;8.68;;
72132;SDS011;60008;50.826;6.896;2024-01-30T01:20:29;16.10;;;8.55;;
72132;SDS011;60008;50.826;6.896;2024-01-30T01:23:14;19.70;;;8.13;;
72132;SDS011;60008;50.826;6.896;2024-01-30T01:26:00;16.03;;;8.20;;
72132;SDS011;60008;50.826;6.896;2024-01-30T01:28:46;15.23;;;7.72;;
72132;SDS011;60008;50.826;6.896;2024-01-30T01:31:31;14.23;;;7.65;;
72132;SDS011;60008;50.826;6.896;2024-01-30T01:34:16;15.18;;;7.75;;
72132;SDS011;60008;50.826;6.896;2024-01-30T01:37:01;17.67;;;8.57;;
72132;SDS011;60008;50.826;6.896;2024-01-30T01:39:47;18.63;;;8.40;;
72132;SDS011;60008;50.826;6.896;2024-01-30T01:42:32;20.20;;;8.43;;
72132;SDS011;60008;50.826;6.896;2024-01-30T01:45:17;13.70;;;6.43;;
72132;SDS011;60008;50.826;6.896;2024-01-30T01:48:03;16.48;;;7.93;;
72132;SDS011;60008;50.826;6.896;2024-01-30T01:50:49;17.33;;;8.15;;
72132;SDS011;60008;50.826;6.896;2024-01-30T01:53:34;15.27;;;7.80;;
72132;SDS011;60008;50.826;6.896;2024-01-30T01:56:20;14.77;;;7.68;;
72132;SDS011;60008;50.826;6.896;2024-01-30T01:59:06;13.15;;;6.75;;
72132;SDS011;60008;50.826;6.896;2024-01-30T02:01:52;14.25;;;7.10;;
72132;SDS011;60008;50.826;6.896;2024-01-30T02:04:39;17.80;;;7.40;;
72132;SDS011;60008;50.826;6.896;2024-01-30T02:07:25;15.63;;;7.57;;
72132;SDS011;60008;50.826;6.896;2024-01-30T02:10:10;18.10;;;7.45;;
72132;SDS011;60008;50.826;6.896;2024-01-30T02:12:56;15.15;;;7.32;;
72132;SDS011;60008;50.826;6.896;2024-01-30T02:15:41;15.20;;;7.18;;
72132;SDS011;60008;50.826;6.896;2024-01-30T02:18:26;17.23;;;7.22;;
72132;SDS011;60008;50.826;6.896;2024-01-30T02:21:11;15.40;;;7.07;;
72132;SDS011;60008;50.826;6.896;2024-01-30T02:23:57;17.48;;;6.93;;
72132;SDS011;60008;50.826;6.896;2024-01-30T02:26:43;14.55;;;7.03;;
72132;SDS011;60008;50.826;6.896;2024-01-30T02:29:28;14.73;;;6.90;;
72132;SDS011;60008;50.826;6.896;2024-01-30T02:32:14;14.50;;;7.38;;
72132;SDS011;60008;50.826;6.896;2024-01-30T02:34:59;13.47;;;6.97;;
72132;SDS011;60008;50.826;6.896;2024-01-30T02:37:44;17.85;;;7.10;;
72132;SDS011;60008;50.826;6.896;2024-01-30T02:40:29;13.20;;;6.80;;
72132;SDS011;60008;50.826;6.896;2024-01-30T02:43:15;18.60;;;7.10;;
72132;SDS011;60008;50.826;6.896;2024-01-30T02:46:01;13.25;;;6.70;;
72132;SDS011;60008;50.826;6.896;2024-01-30T02:48:46;16.00;;;7.40;;
72132;SDS011;60008;50.826;6.896;2024-01-30T02:51:31;14.80;;;7.63;;
72132;SDS011;60008;50.826;6.896;2024-01-30T02:54:17;14.98;;;7.07;;
72132;SDS011;60008;50.826;6.896;2024-01-30T02:57:02;14.30;;;6.68;;
72132;SDS011;60008;50.826;6.896;2024-01-30T02:59:47;13.43;;;6.47;;
72132;SDS011;60008;50.826;6.896;2024-01-30T03:02:32;14.03;;;6.40;;
72132;SDS011;60008;50.826;6.896;2024-01-30T03:05:17;16.40;;;6.60;;
72132;SDS011;60008;50.826;6.896;2024-01-30T03:08:03;12.85;;;6.63;;
72132;SDS011;60008;50.826;6.896;2024-01-30T03:10:49;12.00;;;5.78;;
72132;SDS011;60008;50.826;6.896;2024-01-30T03:13:34;12.95;;;6.53;;
72132;SDS011;60008;50.826;6.896;2024-01-30T03:16:19;14.13;;;7.00;;
72132;SDS011;60008;50.826;6.896;2024-01-30T03:19:05;14.45;;;6.53;;
72132;SDS011;60008;50.826;6.896;2024-01-30T03:21:52;11.82;;;6.05;;
72132;SDS011;60008;50.826;6.896;2024-01-30T03:24:37;14.32;;;5.95;;
72132;SDS011;60008;50.826;6.896;2024-01-30T03:27:22;13.52;;;6.38;;
72132;SDS011;60008;50.826;6.896;2024-01-30T03:30:08;13.23;;;5.83;;
72132;SDS011;60008;50.826;6.896;2024-01-30T03:32:53;13.25;;;6.28;;
72132;SDS011;60008;50.826;6.896;2024-01-30T03:35:38;11.25;;;5.78;;
72132;SDS011;60008;50.826;6.896;2024-01-30T03:38:23;13.55;;;5.97;;
72132;SDS011;60008;50.826;6.896;2024-01-30T03:41:09;11.68;;;6.00;;
72132;SDS011;60008;50.826;6.896;2024-01-30T03:43:55;11.80;;;5.67;;
72132;SDS011;60008;50.826;6.896;2024-01-30T03:46:40;13.77;;;5.95;;
72132;SDS011;60008;50.826;6.896;2024-01-30T03:49:25;18.83;;;9.05;;
72132;SDS011;60008;50.826;6.896;2024-01-30T03:52:11;12.70;;;6.57;;
72132;SDS011;60008;50.826;6.896;2024-01-30T03:54:56;14.52;;;6.28;;
72132;SDS011;60008;50.826;6.896;2024-01-30T03:57:41;18.63;;;8.03;;
72132;SDS011;60008;50.826;6.896;2024-01-30T04:00:26;17.40;;;8.30;;
72132;SDS011;60008;50.826;6.896;2024-01-30T04:03:16;15.60;;;7.93;;
72132;SDS011;60008;50.826;6.896;2024-01-30T04:06:02;14.00;;;7.07;;
72132;SDS011;60008;50.826;6.896;2024-01-30T04:08:47;14.32;;;6.95;;
72132;SDS011;60008;50.826;6.896;2024-01-30T04:11:32;15.10;;;7.73;;
72132;SDS011;60008;50.826;6.896;2024-01-30T04:14:18;20.25;;;8.00;;
72132;SDS011;60008;50.826;6.896;2024-01-30T04:17:03;17.42;;;7.55;;
72132;SDS011;60008;50.826;6.896;2024-01-30T04:19:48;17.08;;;7.40;;
72132;SDS011;60008;50.826;6.896;2024-01-30T04:22:34;17.08;;;7.45;;
72132;SDS011;60008;50.826;6.896;2024-01-30T04:25:19;16.40;;;6.27;;
72132;SDS011;60008;50.826;6.896;2024-01-30T04:28:05;12.02;;;6.25;;
72132;SDS011;60008;50.826;6.896;2024-01-30T04:30:50;32.83;;;13.00;;
72132;SDS011;60008;50.826;6.896;2024-01-30T04:33:35;26.23;;;10.13;;
72132;SDS011;60008;50.826;6.896;2024-01-30T04:36:21;36.28;;;15.18;;
72132;SDS011;60008;50.826;6.896;2024-01-30T04:39:06;27.73;;;11.00;;
72132;SDS011;60008;50.826;6.896;2024-01-30T04:41:51;21.02;;;8.80;;
72132;SDS011;60008;50.826;6.896;2024-01-30T04:44:37;20.80;;;8.25;;
72132;SDS011;60008;50.826;6.896;2024-01-30T04:47:22;15.45;;;7.40;;
72132;SDS011;60008;50.826;6.896;2024-01-30T04:50:07;16.33;;;7.18;;
72132;SDS011;60008;50.826;6.896;2024-01-30T04:52:53;25.57;;;9.80;;
72132;SDS011;60008;50.826;6.896;2024-01-30T04:55:38;21.08;;;8.60;;
72132;SDS011;60008;50.826;6.896;2024-01-30T04:58:23;22.17;;;8.95;;
72132;SDS011;60008;50.826;6.896;2024-01-30T05:01:08;15.80;;;6.32;;
72132;SDS011;60008;50.826;6.896;2024-01-30T05:03:53;16.50;;;7.07;;
72132;SDS011;60008;50.826;6.896;2024-01-30T05:06:38;26.73;;;11.50;;
72132;SDS011;60008;50.826;6.896;2024-01-30T05:09:24;37.28;;;14.52;;
72132;SDS011;60008;50.826;6.896;2024-01-30T05:12:09;31.85;;;13.40;;
72132;SDS011;60008;50.826;6.896;2024-01-30T05:14:55;38.45;;;14.98;;
72132;SDS011;60008;50.826;6.896;2024-01-30T05:17:40;33.58;;;13.00;;
72132;SDS011;60008;50.826;6.896;2024-01-30T05:20:25;30.30;;;13.10;;
72132;SDS011;60008;50.826;6.896;2024-01-30T05:23:17;26.58;;;10.88;;
72132;SDS011;60008;50.826;6.896;2024-01-30T05:26:02;35.63;;;13.68;;
72132;SDS011;60008;50.826;6.896;2024-01-30T05:28:48;60.63;;;22.60;;
72132;SDS011;60008;50.826;6.896;2024-01-30T05:31:33;33.67;;;12.02;;
72132;SDS011;60008;50.826;6.896;2024-01-30T05:34:19;22.73;;;9.70;;
72132;SDS011;60008;50.826;6.896;2024-01-30T05:37:04;17.38;;;7.65;;
72132;SDS011;60008;50.826;6.896;2024-01-30T05:39:49;14.48;;;6.53;;
72132;SDS011;60008;50.826;6.896;2024-01-30T05:42:35;16.85;;;6.95;;
72132;SDS011;60008;50.826;6.896;2024-01-30T05:45:20;15.23;;;7.22;;
72132;SDS011;60008;50.826;6.896;2024-01-30T05:48:08;13.83;;;6.40;;
72132;SDS011;60008;50.826;6.896;2024-01-30T05:50:53;14.95;;;6.25;;
72132;SDS011;60008;50.826;6.896;2024-01-30T05:53:39;11.27;;;5.85;;
72132;SDS011;60008;50.826;6.896;2024-01-30T05:56:24;14.93;;;7.07;;
72132;SDS011;60008;50.826;6.896;2024-01-30T05:59:09;14.02;;;6.88;;
72132;SDS011;60008;50.826;6.896;2024-01-30T06:01:54;13.93;;;6.50;;
72132;SDS011;60008;50.826;6.896;2024-01-30T06:04:39;17.35;;;8.52;;
72132;SDS011;60008;50.826;6.896;2024-01-30T06:07:25;15.38;;;7.53;;
72132;SDS011;60008;50.826;6.896;2024-01-30T06:10:10;15.00;;;6.18;;
72132;SDS011;60008;50.826;6.896;2024-01-30T06:12:55;15.57;;;7.60;;
72132;SDS011;60008;50.826;6.896;2024-01-30T06:15:40;17.23;;;8.27;;
72132;SDS011;60008;50.826;6.896;2024-01-30T06:18:25;16.45;;;8.15;;
72132;SDS011;60008;50.826;6.896;2024-01-30T06:21:14;16.38;;;8.00;;
72132;SDS011;60008;50.826;6.896;2024-01-30T06:24:00;20.23;;;9.27;;
72132;SDS011;60008;50.826;6.896;2024-01-30T06:26:45;26.63;;;11.90;;
72132;SDS011;60008;50.826;6.896;2024-01-30T06:29:31;19.50;;;9.07;;
72132;SDS011;60008;50.826;6.896;2024-01-30T06:32:16;15.13;;;7.80;;
72132;SDS011;60008;50.826;6.896;2024-01-30T06:35:01;15.20;;;7.72;;
72132;SDS011;60008;50.826;6.896;2024-01-30T06:37:47;12.13;;;6.38;;
72132;SDS011;60008;50.826;6.896;2024-01-30T06:40:32;12.27;;;6.60;;
72132;SDS011;60008;50.826;6.896;2024-01-30T06:43:17;16.73;;;6.47;;
72132;SDS011;60008;50.826;6.896;2024-01-30T06:46:03;12.50;;;6.22;;
72132;SDS011;60008;50.826;6.896;2024-01-30T06:48:48;12.30;;;6.00;;
72132;SDS011;60008;50.826;6.896;2024-01-30T06:51:33;11.82;;;5.97;;
72132;SDS011;60008;50.826;6.896;2024-01-30T06:54:18;11.85;;;6.15;;
72132;SDS011;60008;50.826;6.896;2024-01-30T06:57:03;13.40;;;5.50;;
72132;SDS011;60008;50.826;6.896;2024-01-30T06:59:48;15.25;;;6.70;;
72132;SDS011;60008;50.826;6.896;2024-01-30T07:02:33;14.45;;;6.32;;
72132;SDS011;60008;50.826;6.896;2024-01-30T07:05:18;13.43;;;6.68;;
72132;SDS011;60008;50.826;6.896;2024-01-30T07:08:04;13.52;;;6.00;;
72132;SDS011;60008;50.826;6.896;2024-01-30T07:10:49;16.17;;;6.73;;
72132;SDS011;60008;50.826;6.896;2024-01-30T07:13:34;15.18;;;7.50;;
72132;SDS011;60008;50.826;6.896;2024-01-30T07:16:20;16.35;;;7.07;;
72132;SDS011;60008;50.826;6.896;2024-01-30T07:19:05;16.33;;;6.90;;
72132;SDS011;60008;50.826;6.896;2024-01-30T07:21:50;13.27;;;6.50;;
72132;SDS011;60008;50.826;6.896;2024-01-30T07:24:35;12.07;;;6.30;;
72132;SDS011;60008;50.826;6.896;2024-01-30T07:27:20;10.57;;;5.88;;
72132;SDS011;60008;50.826;6.896;2024-01-30T07:30:06;15.45;;;6.47;;
72132;SDS011;60008;50.826;6.896;2024-01-30T07:32:52;16.27;;;7.60;;
72132;SDS011;60008;50.826;6.896;2024-01-30T07:35:37;13.00;;;6.20;;
72132;SDS011;60008;50.826;6.896;2024-01-30T07:38:22;12.50;;;6.07;;
72132;SDS011;60008;50.826;6.896;2024-01-30T07:41:08;10.52;;;5.80;;
72132;SDS011;60008;50.826;6.896;2024-01-30T07:43:53;14.85;;;6.70;;
72132;SDS011;60008;50.826;6.896;2024-01-30T07:46:38;13.57;;;6.68;;
72132;SDS011;60008;50.826;6.896;2024-01-30T07:49:23;14.30;;;6.65;;
72132;SDS011;60008;50.826;6.896;2024-01-30T07:52:08;10.40;;;5.47;;
72132;SDS011;60008;50.826;6.896;2024-01-30T07:54:53;11.60;;;5.75;;
72132;SDS011;60008;50.826;6.896;2024-01-30T07:57:39;12.20;;;5.95;;
72132;SDS011;60008;50.826;6.896;2024-01-30T08:00:24;17.30;;;7.28;;
72132;SDS011;60008;50.826;6.896;2024-01-30T08:03:10;13.05;;;6.32;;
72132;SDS011;60008;50.826;6.896;2024-01-30T08:05:55;28.43;;;11.30;;
72132;SDS011;60008;50.826;6.896;2024-01-30T08:08:40;34.70;;;11.75;;
72132;SDS011;60008;50.826;6.896;2024-01-30T08:11:26;38.95;;;15.80;;
72132;SDS011;60008;50.826;6.896;2024-01-30T08:14:12;25.95;;;9.60;;
72132;SDS011;60008;50.826;6.896;2024-01-30T08:16:58;18.33;;;8.57;;
72132;SDS011;60008;50.826;6.896;2024-01-30T08:19:43;12.93;;;6.00;;
72132;SDS011;60008;50.826;6.896;2024-01-30T08:22:29;14.40;;;6.10;;
72132;SDS011;60008;50.826;6.896;2024-01-30T08:25:16;13.90;;;6.40;;
72132;SDS011;60008;50.826;6.896;2024-01-30T08:28:01;11.82;;;6.22;;
72132;SDS011;60008;50.826;6.896;2024-01-30T08:30:46;12.25;;;5.50;;
72132;SDS011;60008;50.826;6.896;2024-01-30T08:33:31;13.23;;;6.03;;
72132;SDS011;60008;50.826;6.896;2024-01-30T08:36:18;12.52;;;6.18;;
72132;SDS011;60008;50.826;6.896;2024-01-30T08:39:03;19.40;;;6.55;;
72132;SDS011;60008;50.826;6.896;2024-01-30T08:41:50;11.55;;;5.32;;
72132;SDS011;60008;50.826;6.896;2024-01-30T08:44:36;11.80;;;6.03;;
72132;SDS011;60008;50.826;6.896;2024-01-30T08:47:21;13.07;;;6.30;;
72132;SDS011;60008;50.826;6.896;2024-01-30T08:50:06;15.77;;;7.03;;
72132;SDS011;60008;50.826;6.896;2024-01-30T08:52:52;13.25;;;6.35;;
72132;SDS011;60008;50.826;6.896;2024-01-30T08:55:37;20.70;;;7.75;;
72132;SDS011;60008;50.826;6.896;2024-01-30T08:58:22;16.85;;;7.25;;
72132;SDS011;60008;50.826;6.896;2024-01-30T09:01:07;14.00;;;6.90;;
72132;SDS011;60008;50.826;6.896;2024-01-30T09:03:53;12.90;;;6.43;;
72132;SDS011;60008;50.826;6.896;2024-01-30T09:06:38;14.82;;;6.25;;
72132;SDS011;60008;50.826;6.896;2024-01-30T09:09:24;12.48;;;6.25;;
72132;SDS011;60008;50.826;6.896;2024-01-30T09:12:09;17.15;;;7.20;;
72132;SDS011;60008;50.826;6.896;2024-01-30T09:14:57;16.77;;;7.23;;
72132;SDS011;60008;50.826;6.896;2024-01-30T09:17:42;16.52;;;7.50;;
72132;SDS011;60008;50.826;6.896;2024-01-30T09:20:27;14.57;;;7.50;;
72132;SDS011;60008;50.826;6.896;2024-01-30T09:23:16;16.23;;;8.32;;
72132;SDS011;60008;50.826;6.896;2024-01-30T09:26:03;14.65;;;6.70;;
72132;SDS011;60008;50.826;6.896;2024-01-30T09:28:49;12.33;;;6.47;;
72132;SDS011;60008;50.826;6.896;2024-01-30T09:31:34;14.13;;;6.45;;
72132;SDS011;60008;50.826;6.896;2024-01-30T09:34:19;14.15;;;7.38;;
72132;SDS011;60008;50.826;6.896;2024-01-30T09:37:05;16.67;;;6.95;;
72132;SDS011;60008;50.826;6.896;2024-01-30T09:39:50;11.38;;;6.53;;
72132;SDS011;60008;50.826;6.896;2024-01-30T09:42:36;14.23;;;7.43;;
72132;SDS011;60008;50.826;6.896;2024-01-30T09:45:24;14.23;;;7.00;;
72132;SDS011;60008;50.826;6.896;2024-01-30T09:48:10;13.30;;;5.80;;
72132;SDS011;60008;50.826;6.896;2024-01-30T09:50:56;12.80;;;6.40;;
72132;SDS011;60008;50.826;6.896;2024-01-30T09:53:42;12.57;;;6.88;;
72132;SDS011;60008;50.826;6.896;2024-01-30T09:56:28;18.80;;;6.73;;
72132;SDS011;60008;50.826;6.896;2024-01-30T09:59:14;15.30;;;7.00;;
72132;SDS011;60008;50.826;6.896;2024-01-30T10:02:00;14.10;;;6.45;;
72132;SDS011;60008;50.826;6.896;2024-01-30T10:04:48;11.45;;;6.70;;
72132;SDS011;60008;50.826;6.896;2024-01-30T10:07:34;13.65;;;6.60;;
72132;SDS011;60008;50.826;6.896;2024-01-30T10:10:21;14.53;;;6.40;;
72132;SDS011;60008;50.826;6.896;2024-01-30T10:13:09;14.48;;;6.65;;
72132;SDS011;60008;50.826;6.896;2024-01-30T10:15:55;17.83;;;7.38;;
72132;SDS011;60008;50.826;6.896;2024-01-30T10:18:41;13.55;;;7.32;;
72132;SDS011;60008;50.826;6.896;2024-01-30T10:21:32;14.00;;;6.35;;
72132;SDS011;60008;50.826;6.896;2024-01-30T10:24:17;13.37;;;6.77;;
72132;SDS011;60008;50.826;6.896;2024-01-30T10:27:03;13.80;;;6.93;;
72132;SDS011;60008;50.826;6.896;2024-01-30T10:29:48;12.57;;;6.68;;
72132;SDS011;60008;50.826;6.896;2024-01-30T10:32:34;14.07;;;6.13;;
72132;SDS011;60008;50.826;6.896;2024-01-30T10:35:21;16.45;;;8.00;;
72132;SDS011;60008;50.826;6.896;2024-01-30T10:38:06;17.93;;;8.83;;
72132;SDS011;60008;50.826;6.896;2024-01-30T10:40:55;14.18;;;8.25;;
72132;SDS011;60008;50.826;6.896;2024-01-30T10:43:42;16.52;;;7.95;;
72132;SDS011;60008;50.826;6.896;2024-01-30T10:46:35;16.40;;;7.22;;
72132;SDS011;60008;50.826;6.896;2024-01-30T10:49:22;15.00;;;7.72;;
72132;SDS011;60008;50.826;6.896;2024-01-30T10:52:09;13.67;;;7.00;;
72132;SDS011;60008;50.826;6.896;2024-01-30T10:54:55;18.63;;;6.95;;
72132;SDS011;60008;50.826;6.896;2024-01-30T10:57:41;13.85;;;6.93;;
72132;SDS011;60008;50.826;6.896;2024-01-30T11:00:26;15.43;;;7.25;;
72132;SDS011;60008;50.826;6.896;2024-01-30T11:03:11;19.83;;;7.00;;
72132;SDS011;60008;50.826;6.896;2024-01-30T11:05:58;17.07;;;7.30;;
72132;SDS011;60008;50.826;6.896;2024-01-30T11:08:45;13.30;;;7.05;;
72132;SDS011;60008;50.826;6.896;2024-01-30T11:11:30;16.25;;;7.47;;
72132;SDS011;60008;50.826;6.896;2024-01-30T11:14:25;15.95;;;6.60;;
72132;SDS011;60008;50.826;6.896;2024-01-30T11:17:11;14.80;;;6.85;;
72132;SDS011;60008;50.826;6.896;2024-01-30T11:19:58;13.57;;;5.97;;
72132;SDS011;60008;50.826;6.896;2024-01-30T11:22:48;15.90;;;6.30;;
72132;SDS011;60008;50.826;6.896;2024-01-30T11:25:35;15.25;;;6.25;;
72132;SDS011;60008;50.826;6.896;2024-01-30T11:28:21;13.57;;;6.00;;
72132;SDS011;60008;50.826;6.896;2024-01-30T11:31:06;13.73;;;5.75;;
72132;SDS011;60008;50.826;6.896;2024-01-30T11:33:52;12.40;;;6.20;;
72132;SDS011;60008;50.826;6.896;2024-01-30T11:36:38;14.20;;;5.70;;
72132;SDS011;60008;50.826;6.896;2024-01-30T11:39:24;17.45;;;5.32;;
72132;SDS011;60008;50.826;6.896;2024-01-30T11:42:11;12.23;;;5.80;;
72132;SDS011;60008;50.826;6.896;2024-01-30T11:44:56;12.75;;;5.97;;
72132;SDS011;60008;50.826;6.896;2024-01-30T11:47:42;14.87;;;6.10;;
72132;SDS011;60008;50.826;6.896;2024-01-30T11:50:29;12.20;;;6.03;;
72132;SDS011;60008;50.826;6.896;2024-01-30T11:53:18;23.33;;;9.77;;
72132;SDS011;60008;50.826;6.896;2024-01-30T11:56:05;21.30;;;8.98;;
72132;SDS011;60008;50.826;6.896;2024-01-30T11:58:51;16.73;;;8.55;;
72132;SDS011;60008;50.826;6.896;2024-01-30T12:01:37;15.60;;;6.00;;
72132;SDS011;60008;50.826;6.896;2024-01-30T12:04:22;17.85;;;6.72;;
72132;SDS011;60008;50.826;6.896;2024-01-30T12:07:08;13.27;;;6.35;;
72132;SDS011;60008;50.826;6.896;2024-01-30T12:09:53;13.20;;;6.00;;
72132;SDS011;60008;50.826;6.896;2024-01-30T12:12:42;15.55;;;6.03;;
72132;SDS011;60008;50.826;6.896;2024-01-30T12:15:29;13.67;;;6.20;;
72132;SDS011;60008;50.826;6.896;2024-01-30T12:18:14;15.38;;;5.80;;
72132;SDS011;60008;50.826;6.896;2024-01-30T12:21:03;10.45;;;6.00;;
72132;SDS011;60008;50.826;6.896;2024-01-30T12:23:49;14.40;;;6.60;;
72132;SDS011;60008;50.826;6.896;2024-01-30T12:26:34;17.65;;;7.10;;
72132;SDS011;60008;50.826;6.896;2024-01-30T12:29:19;16.47;;;6.70;;
72132;SDS011;60008;50.826;6.896;2024-01-30T12:32:05;14.15;;;6.32;;
72132;SDS011;60008;50.826;6.896;2024-01-30T12:34:50;19.17;;;6.57;;
72132;SDS011;60008;50.826;6.896;2024-01-30T12:37:45;20.20;;;6.70;;
72132;SDS011;60008;50.826;6.896;2024-01-30T12:40:33;12.82;;;6.00;;
72132;SDS011;60008;50.826;6.896;2024-01-30T12:43:18;17.67;;;6.40;;
72132;SDS011;60008;50.826;6.896;2024-01-30T12:46:18;13.77;;;5.82;;
72132;SDS011;60008;50.826;6.896;2024-01-30T12:49:03;14.90;;;5.70;;
72132;SDS011;60008;50.826;6.896;2024-01-30T12:51:48;13.35;;;6.25;;
72132;SDS011;60008;50.826;6.896;2024-01-30T12:54:35;16.13;;;6.18;;
72132;SDS011;60008;50.826;6.896;2024-01-30T12:57:20;15.83;;;6.30;;
72132;SDS011;60008;50.826;6.896;2024-01-30T13:00:06;14.93;;;6.85;;
72132;SDS011;60008;50.826;6.896;2024-01-30T13:02:53;18.75;;;6.63;;
72132;SDS011;60008;50.826;6.896;2024-01-30T13:05:38;14.80;;;6.60;;
72132;SDS011;60008;50.826;6.896;2024-01-30T13:08:23;13.13;;;6.82;;
72132;SDS011;60008;50.826;6.896;2024-01-30T13:11:09;18.00;;;6.77;;
72132;SDS011;60008;50.826;6.896;2024-01-30T13:14:05;19.83;;;7.65;;
72132;SDS011;60008;50.826;6.896;2024-01-30T13:16:50;17.77;;;7.63;;
72132;SDS011;60008;50.826;6.896;2024-01-30T13:19:35;19.75;;;7.35;;
72132;SDS011;60008;50.826;6.896;2024-01-30T13:22:20;18.88;;;7.20;;
72132;SDS011;60008;50.826;6.896;2024-01-30T13:25:08;15.43;;;7.13;;
72132;SDS011;60008;50.826;6.896;2024-01-30T13:27:54;20.20;;;7.82;;
72132;SDS011;60008;50.826;6.896;2024-01-30T13:30:39;15.40;;;7.90;;
72132;SDS011;60008;50.826;6.896;2024-01-30T13:33:25;22.38;;;8.23;;
72132;SDS011;60008;50.826;6.896;2024-01-30T13:36:11;13.23;;;6.88;;
72132;SDS011;60008;50.826;6.896;2024-01-30T13:38:56;14.97;;;6.80;;
72132;SDS011;60008;50.826;6.896;2024-01-30T13:41:41;16.98;;;7.53;;
72132;SDS011;60008;50.826;6.896;2024-01-30T13:44:27;17.35;;;6.97;;
72132;SDS011;60008;50.826;6.896;2024-01-30T13:47:12;15.82;;;7.10;;
72132;SDS011;60008;50.826;6.896;2024-01-30T13:49:57;14.77;;;6.82;;
72132;SDS011;60008;50.826;6.896;2024-01-30T13:52:42;16.03;;;6.20;;
72132;SDS011;60008;50.826;6.896;2024-01-30T13:55:30;18.40;;;7.25;;
72132;SDS011;60008;50.826;6.896;2024-01-30T13:58:15;18.15;;;7.55;;
72132;SDS011;60008;50.826;6.896;2024-01-30T14:01:00;12.50;;;6.55;;
72132;SDS011;60008;50.826;6.896;2024-01-30T14:03:45;19.08;;;6.75;;
72132;SDS011;60008;50.826;6.896;2024-01-30T14:06:30;14.63;;;6.63;;
72132;SDS011;60008;50.826;6.896;2024-01-30T14:09:15;20.17;;;7.25;;
72132;SDS011;60008;50.826;6.896;2024-01-30T14:12:01;14.65;;;6.80;;
72132;SDS011;60008;50.826;6.896;2024-01-30T14:14:46;14.02;;;6.63;;
72132;SDS011;60008;50.826;6.896;2024-01-30T14:17:31;16.00;;;7.13;;
72132;SDS011;60008;50.826;6.896;2024-01-30T14:20:17;16.77;;;7.10;;
72132;SDS011;60008;50.826;6.896;2024-01-30T14:23:02;18.90;;;7.38;;
72132;SDS011;60008;50.826;6.896;2024-01-30T14:25:48;17.85;;;7.10;;
72132;SDS011;60008;50.826;6.896;2024-01-30T14:28:34;14.80;;;7.28;;
72132;SDS011;60008;50.826;6.896;2024-01-30T14:31:20;14.27;;;7.40;;
72132;SDS011;60008;50.826;6.896;2024-01-30T14:34:06;22.40;;;7.33;;
72132;SDS011;60008;50.826;6.896;2024-01-30T14:36:53;17.08;;;7.20;;
72132;SDS011;60008;50.826;6.896;2024-01-30T14:39:38;17.08;;;7.88;;
72132;SDS011;60008;50.826;6.896;2024-01-30T14:42:25;14.93;;;7.05;;
72132;SDS011;60008;50.826;6.896;2024-01-30T14:45:12;21.45;;;7.47;;
72132;SDS011;60008;50.826;6.896;2024-01-30T14:47:57;17.53;;;7.60;;
72132;SDS011;60008;50.826;6.896;2024-01-30T14:50:44;23.80;;;8.15;;
72132;SDS011;60008;50.826;6.896;2024-01-30T14:53:29;21.25;;;7.85;;
72132;SDS011;60008;50.826;6.896;2024-01-30T14:56:14;16.80;;;7.40;;
72132;SDS011;60008;50.826;6.896;2024-01-30T14:58:59;11.98;;;6.53;;
72132;SDS011;60008;50.826;6.896;2024-01-30T15:01:45;20.83;;;7.97;;
72132;SDS011;60008;50.826;6.896;2024-01-30T15:04:30;18.88;;;7.63;;
72132;SDS011;60008;50.826;6.896;2024-01-30T15:07:18;16.65;;;7.88;;
72132;SDS011;60008;50.826;6.896;2024-01-30T15:10:16;18.60;;;7.55;;
72132;SDS011;60008;50.826;6.896;2024-01-30T15:13:02;20.15;;;7.90;;
72132;SDS011;60008;50.826;6.896;2024-01-30T15:15:47;18.57;;;7.97;;
72132;SDS011;60008;50.826;6.896;2024-01-30T15:18:33;20.38;;;9.30;;
72132;SDS011;60008;50.826;6.896;2024-01-30T15:21:21;18.00;;;7.22;;
72132;SDS011;60008;50.826;6.896;2024-01-30T15:24:09;9.65;;;4.30;;
72132;SDS011;60008;50.826;6.896;2024-01-30T15:26:54;9.00;;;3.70;;
72132;SDS011;60008;50.826;6.896;2024-01-30T15:29:39;10.90;;;4.03;;
72132;SDS011;60008;50.826;6.896;2024-01-30T15:32:24;8.82;;;3.80;;
72132;SDS011;60008;50.826;6.896;2024-01-30T15:35:10;7.03;;;3.25;;
72132;SDS011;60008;50.826;6.896;2024-01-30T15:37:55;7.18;;;3.50;;
72132;SDS011;60008;50.826;6.896;2024-01-30T15:40:40;7.85;;;3.42;;
72132;SDS011;60008;50.826;6.896;2024-01-30T15:43:24;6.17;;;3.17;;
72132;SDS011;60008;50.826;6.896;2024-01-30T15:46:10;11.57;;;3.88;;
72132;SDS011;60008;50.826;6.896;2024-01-30T15:48:55;9.52;;;3.00;;
72132;SDS011;60008;50.826;6.896;2024-01-30T15:51:41;11.32;;;3.42;;
72132;SDS011;60008;50.826;6.896;2024-01-30T15:54:26;10.35;;;4.05;;
72132;SDS011;60008;50.826;6.896;2024-01-30T15:57:11;8.93;;;4.37;;
72132;SDS011;60008;50.826;6.896;2024-01-30T15:59:56;9.82;;;4.22;;
72132;SDS011;60008;50.826;6.896;2024-01-30T16:02:41;7.55;;;3.58;;
72132;SDS011;60008;50.826;6.896;2024-01-30T16:05:27;7.63;;;3.63;;
72132;SDS011;60008;50.826;6.896;2024-01-30T16:08:12;10.15;;;4.40;;
72132;SDS011;60008;50.826;6.896;2024-01-30T16:10:57;11.03;;;4.83;;
72132;SDS011;60008;50.826;6.896;2024-01-30T16:13:43;15.77;;;5.53;;
72132;SDS011;60008;50.826;6.896;2024-01-30T16:16:28;15.25;;;5.30;;
72132;SDS011;60008;50.826;6.896;2024-01-30T16:19:13;14.93;;;5.53;;
72132;SDS011;60008;50.826;6.896;2024-01-30T16:21:58;15.55;;;5.35;;